createdAt,value
2019-02-04T00:01:59.446Z,81.84
2019-02-04T00:04:26.282Z,81.75
2019-02-04T00:06:53.239Z,81.20
2019-02-04T00:09:20.075Z,81.78
2019-02-04T00:11:46.946Z,81.92
2019-02-04T00:14:13.791Z,80.79
2019-02-04T00:16:41.373Z,81.11
2019-02-04T00:19:07.542Z,82.24
2019-02-04T00:21:34.482Z,82.26
2019-02-04T00:24:01.338Z,82.45
2019-02-04T00:26:28.194Z,82.52
2019-02-04T00:28:55.046Z,80.77
2019-02-04T00:31:21.889Z,80.55
2019-02-04T00:33:48.732Z,79.34
2019-02-04T00:36:15.555Z,81.77
2019-02-04T00:38:42.402Z,81.70
2019-02-04T00:41:09.234Z,81.90
2019-02-04T00:43:36.090Z,81.87
2019-02-04T00:46:02.917Z,81.98
2019-02-04T00:48:29.767Z,81.32
2019-02-04T00:50:56.599Z,82.20
2019-02-04T00:53:23.461Z,82.44
2019-02-04T00:55:50.293Z,81.97
2019-02-04T00:58:17.253Z,80.78
2019-02-04T01:00:43.995Z,79.99
2019-02-04T01:03:10.834Z,82.18
2019-02-04T01:05:37.666Z,81.53
2019-02-04T01:08:04.529Z,82.51
2019-02-04T01:10:31.363Z,82.38
2019-02-04T01:12:58.234Z,82.77
2019-02-04T01:15:25.095Z,83.00
2019-02-04T01:17:51.941Z,83.93
2019-02-04T01:20:20.950Z,83.36
2019-02-04T01:22:47.802Z,83.00
2019-02-04T01:25:14.639Z,82.84
2019-02-04T01:27:41.491Z,83.69
2019-02-04T01:30:08.747Z,84.51
2019-02-04T01:32:35.605Z,85.17
2019-02-04T01:35:02.528Z,83.74
2019-02-04T01:37:29.393Z,81.78
2019-02-04T01:39:56.208Z,81.04
2019-02-04T01:42:23.054Z,83.21
2019-02-04T01:44:49.894Z,84.48
2019-02-04T01:47:16.756Z,84.83
2019-02-04T01:49:43.582Z,84.39
2019-02-04T01:52:10.438Z,83.77
2019-02-04T01:54:37.280Z,84.73
2019-02-04T01:57:04.102Z,84.87
2019-02-04T01:59:30.962Z,84.74
2019-02-04T02:01:57.782Z,84.37
2019-02-04T02:04:24.635Z,85.12
2019-02-04T02:06:51.462Z,84.06
2019-02-04T02:09:23.435Z,84.55
2019-02-04T02:11:50.262Z,83.57
2019-02-04T02:14:17.112Z,84.78
2019-02-04T02:16:43.933Z,83.80
2019-02-04T02:19:10.782Z,85.07
2019-02-04T02:21:37.611Z,83.72
2019-02-04T02:24:04.465Z,84.81
2019-02-04T02:26:31.290Z,83.33
2019-02-04T02:28:58.179Z,86.10
2019-02-04T02:31:24.997Z,86.12
2019-02-04T02:33:51.866Z,85.14
2019-02-04T02:36:18.697Z,86.16
2019-02-04T02:38:45.548Z,85.27
2019-02-04T02:41:12.480Z,85.12
2019-02-04T02:43:39.311Z,85.68
2019-02-04T02:46:06.138Z,85.33
2019-02-04T02:48:33.089Z,86.05
2019-02-04T02:50:59.813Z,85.01
2019-02-04T02:53:26.682Z,86.74
2019-02-04T02:55:53.497Z,85.27
2019-02-04T02:58:20.394Z,86.56
2019-02-04T03:00:47.319Z,85.18
2019-02-04T03:03:14.082Z,85.94
2019-02-04T03:05:40.931Z,84.85
2019-02-04T03:08:07.783Z,84.34
2019-02-04T03:10:34.655Z,86.85
2019-02-04T03:13:01.502Z,88.14
2019-02-04T03:15:28.361Z,87.94
2019-02-04T03:17:55.207Z,89.19
2019-02-04T03:20:22.088Z,88.22
2019-02-04T03:22:48.989Z,90.11
2019-02-04T03:25:15.839Z,89.17
2019-02-04T03:27:42.669Z,89.42
2019-02-04T03:30:20.406Z,89.84
2019-02-04T03:32:47.223Z,89.63
2019-02-04T03:35:14.088Z,89.54
2019-02-04T03:37:40.920Z,90.68
2019-02-04T03:40:09.595Z,91.33
2019-02-04T03:42:36.312Z,89.25
2019-02-04T03:45:03.167Z,89.47
2019-02-04T03:47:30.024Z,88.12
2019-02-04T03:49:56.862Z,88.79
2019-02-04T03:52:23.681Z,87.05
2019-02-04T03:54:50.526Z,87.65
2019-02-04T03:57:17.342Z,86.58
2019-02-04T03:59:44.193Z,87.45
2019-02-04T04:02:11.040Z,86.75
2019-02-04T04:04:37.877Z,86.84
2019-02-04T04:07:04.705Z,88.16
2019-02-04T04:09:31.638Z,87.95
2019-02-04T04:11:58.463Z,89.08
2019-02-04T04:14:25.314Z,87.55
2019-02-04T04:16:52.158Z,87.58
2019-02-04T04:19:19.007Z,88.22
2019-02-04T04:21:45.830Z,87.49
2019-02-04T04:24:12.683Z,87.78
2019-02-04T04:26:39.515Z,88.21
2019-02-04T04:29:06.350Z,88.15
2019-02-04T04:31:33.181Z,89.14
2019-02-04T04:34:00.014Z,87.33
2019-02-04T04:36:26.878Z,86.48
2019-02-04T04:38:53.725Z,85.38
2019-02-04T04:41:20.743Z,88.01
2019-02-04T04:43:47.578Z,87.24
2019-02-04T04:46:14.444Z,87.88
2019-02-04T04:48:41.269Z,87.51
2019-02-04T04:51:08.130Z,86.69
2019-02-04T04:53:34.961Z,88.53
2019-02-04T04:56:01.803Z,88.28
2019-02-04T04:58:28.625Z,88.64
2019-02-04T05:00:55.465Z,90.80
2019-02-04T05:03:22.371Z,91.00
2019-02-04T05:05:49.206Z,91.11
2019-02-04T05:08:16.050Z,92.00
2019-02-04T05:10:42.907Z,91.63
2019-02-04T05:13:09.739Z,92.79
2019-02-04T05:15:36.597Z,91.72
2019-02-04T05:18:03.426Z,91.49
2019-02-04T05:20:30.270Z,93.08
2019-02-04T05:22:57.090Z,91.43
2019-02-04T05:25:24.012Z,91.02
2019-02-04T05:27:50.859Z,91.92
2019-02-04T05:30:19.267Z,90.82
2019-02-04T05:32:46.102Z,89.76
2019-02-04T05:35:12.957Z,91.18
2019-02-04T05:37:39.792Z,89.78
2019-02-04T05:40:08.294Z,88.83
2019-02-04T05:42:35.138Z,89.15
2019-02-04T05:45:01.997Z,88.62
2019-02-04T05:47:28.865Z,86.65
2019-02-04T05:49:55.714Z,88.72
2019-02-04T05:52:22.552Z,86.70
2019-02-04T05:54:49.397Z,86.18
2019-02-04T05:57:16.338Z,87.75
2019-02-04T05:59:43.178Z,87.95
2019-02-04T06:02:10.018Z,88.74
2019-02-04T06:04:36.870Z,89.22
2019-02-04T06:07:05.027Z,86.95
2019-02-04T06:09:30.899Z,86.93
2019-02-04T06:11:57.744Z,88.97
2019-02-04T06:14:25.517Z,87.94
2019-02-04T06:16:52.386Z,87.55
2019-02-04T06:19:19.233Z,89.42
2019-02-04T06:21:46.069Z,88.30
2019-02-04T06:24:12.910Z,89.26
2019-02-04T06:26:39.767Z,87.84
2019-02-04T06:29:06.586Z,87.48
2019-02-04T06:31:33.433Z,89.63
2019-02-04T06:34:00.263Z,88.66
2019-02-04T06:36:27.098Z,87.87
2019-02-04T06:38:53.942Z,91.05
2019-02-04T06:41:20.795Z,89.64
2019-02-04T06:43:47.760Z,87.92
2019-02-04T06:46:14.617Z,90.32
2019-02-04T06:48:41.444Z,89.04
2019-02-04T06:51:08.361Z,87.89
2019-02-04T06:53:35.203Z,89.49
2019-02-04T06:56:02.045Z,89.14
2019-02-04T06:58:28.870Z,89.21
2019-02-04T07:00:55.796Z,90.92
2019-02-04T07:03:22.628Z,89.52
2019-02-04T07:05:49.478Z,89.43
2019-02-04T07:08:16.311Z,88.36
2019-02-04T07:10:43.165Z,88.20
2019-02-04T07:13:09.993Z,89.61
2019-02-04T07:15:36.846Z,89.42
2019-02-04T07:18:03.739Z,89.47
2019-02-04T07:20:30.618Z,91.51
2019-02-04T07:22:57.478Z,90.45
2019-02-04T07:25:24.334Z,92.13
2019-02-04T07:27:51.174Z,91.04
2019-02-04T07:30:19.756Z,89.57
2019-02-04T07:32:46.646Z,90.88
2019-02-04T07:35:14.166Z,90.76
2019-02-04T07:37:41.030Z,91.85
2019-02-04T07:40:12.190Z,93.31
2019-02-04T07:42:39.095Z,93.58
2019-02-04T07:45:06.193Z,91.71
2019-02-04T07:47:33.036Z,92.23
2019-02-04T07:49:59.853Z,90.35
2019-02-04T07:52:26.694Z,89.17
2019-02-04T07:54:53.526Z,90.14
2019-02-04T07:57:20.375Z,88.92
2019-02-04T07:59:47.206Z,89.26
2019-02-04T08:02:14.062Z,88.64
2019-02-04T08:04:40.896Z,90.37
2019-02-04T08:07:07.735Z,90.36
2019-02-04T08:09:34.562Z,91.04
2019-02-04T08:12:01.406Z,90.28
2019-02-04T08:14:28.227Z,89.41
2019-02-04T08:16:55.094Z,87.97
2019-02-04T08:19:21.928Z,88.42
2019-02-04T08:21:48.795Z,87.07
2019-02-04T08:24:15.614Z,85.61
2019-02-04T08:26:42.469Z,87.38
2019-02-04T08:29:09.299Z,87.56
2019-02-04T08:31:36.146Z,85.15
2019-02-04T08:34:03.126Z,84.90
2019-02-04T08:36:29.957Z,86.09
2019-02-04T08:38:56.874Z,84.99
2019-02-04T08:41:23.782Z,85.15
2019-02-04T08:43:50.626Z,83.94
2019-02-04T08:46:17.470Z,84.69
2019-02-04T08:48:44.330Z,85.09
2019-02-04T08:51:11.170Z,83.88
2019-02-04T08:53:38.018Z,83.82
2019-02-04T08:56:04.866Z,83.78
2019-02-04T08:58:31.738Z,84.92
2019-02-04T09:00:58.566Z,83.88
2019-02-04T09:03:25.413Z,83.96
2019-02-04T09:05:52.242Z,83.77
2019-02-04T09:08:19.092Z,81.83
2019-02-04T09:10:45.923Z,83.29
2019-02-04T09:13:12.779Z,81.00
2019-02-04T09:15:39.627Z,81.04
2019-02-04T09:18:06.470Z,81.09
2019-02-04T09:20:33.302Z,80.38
2019-02-04T09:23:00.174Z,81.57
2019-02-04T09:25:27.017Z,81.42
2019-02-04T09:27:53.979Z,80.72
2019-02-04T09:30:22.377Z,79.73
2019-02-04T09:32:49.227Z,81.16
2019-02-04T09:35:17.130Z,81.81
2019-02-04T09:37:43.958Z,81.55
2019-02-04T09:40:14.587Z,81.84
2019-02-04T09:42:41.598Z,81.24
2019-02-04T09:45:10.521Z,83.29
2019-02-04T09:47:37.454Z,83.39
2019-02-04T09:50:04.922Z,81.19
2019-02-04T09:52:31.779Z,79.77
2019-02-04T09:54:58.598Z,79.12
2019-02-04T09:57:25.451Z,77.39
2019-02-04T09:59:52.342Z,78.21
2019-02-04T10:02:19.140Z,79.41
2019-02-04T10:04:45.979Z,78.88
2019-02-04T10:07:12.826Z,78.59
2019-02-04T10:09:39.661Z,78.58
2019-02-04T10:12:06.558Z,77.61
2019-02-04T10:14:33.418Z,76.72
2019-02-04T10:17:00.283Z,76.30
2019-02-04T10:19:27.090Z,76.12
2019-02-04T10:21:54.161Z,76.05
2019-02-04T10:24:20.850Z,75.13
2019-02-04T10:26:47.669Z,76.81
2019-02-04T10:29:14.518Z,76.84
2019-02-04T10:31:41.382Z,77.37
2019-02-04T10:34:08.237Z,76.79
2019-02-04T10:36:35.063Z,76.19
2019-02-04T10:39:02.017Z,74.86
2019-02-04T10:41:28.861Z,75.09
2019-02-04T10:43:55.692Z,75.32
2019-02-04T10:46:22.737Z,76.11
2019-02-04T10:48:49.581Z,77.02
2019-02-04T10:51:16.503Z,76.66
2019-02-04T10:53:43.289Z,78.00
2019-02-04T10:56:10.164Z,78.56
2019-02-04T10:58:37.009Z,78.35
2019-02-04T11:01:03.843Z,78.41
2019-02-04T11:03:30.688Z,79.23
2019-02-04T11:05:57.563Z,78.45
2019-02-04T11:08:24.394Z,77.97
2019-02-04T11:10:51.254Z,78.30
2019-02-04T11:13:18.153Z,80.02
2019-02-04T11:15:45.981Z,78.58
2019-02-04T11:18:13.171Z,77.42
2019-02-04T11:20:40.004Z,78.06
2019-02-04T11:23:07.483Z,75.69
2019-02-04T11:25:34.302Z,75.02
2019-02-04T11:28:01.200Z,75.90
2019-02-04T11:30:30.273Z,73.02
2019-02-04T11:32:57.135Z,71.06
2019-02-04T11:35:24.103Z,70.09
2019-02-04T11:37:50.913Z,69.81
2019-02-04T11:40:21.862Z,69.48
2019-02-04T11:42:48.731Z,69.32
2019-02-04T11:45:15.574Z,68.88
2019-02-04T11:47:42.474Z,67.48
2019-02-04T11:50:09.782Z,66.08
2019-02-04T11:52:36.642Z,65.71
2019-02-04T11:55:04.198Z,66.15
2019-02-04T11:57:31.055Z,65.08
2019-02-04T11:59:57.907Z,64.66
2019-02-04T12:02:34.393Z,63.48
2019-02-04T12:04:51.743Z,63.03
2019-02-04T12:07:18.598Z,63.96
2019-02-04T12:09:45.446Z,64.43
2019-02-04T12:12:12.359Z,64.00
2019-02-04T12:14:39.186Z,62.53
2019-02-04T12:17:06.063Z,61.99
2019-02-04T12:19:32.910Z,62.27
2019-02-04T12:22:02.626Z,62.16
2019-02-04T12:24:26.610Z,58.83
2019-02-04T12:26:53.544Z,59.97
2019-02-04T12:29:20.390Z,61.83
2019-02-04T12:31:47.238Z,60.33
2019-02-04T12:34:14.128Z,61.68
2019-02-04T12:36:41.012Z,60.40
2019-02-04T12:39:15.379Z,58.75
2019-02-04T12:41:42.207Z,59.18
2019-02-04T12:44:09.227Z,58.95
2019-02-04T12:46:36.062Z,57.88
2019-02-04T12:49:02.942Z,56.51
2019-02-04T12:51:33.795Z,58.42
2019-02-04T12:53:56.642Z,57.47
2019-02-04T12:56:23.625Z,59.35
2019-02-04T12:58:55.648Z,62.46
2019-02-04T13:01:17.390Z,61.59
2019-02-04T13:03:44.304Z,60.88
2019-02-04T13:06:11.613Z,62.08
2019-02-04T13:08:38.478Z,61.33
2019-02-04T13:11:05.321Z,60.62
2019-02-04T13:13:32.206Z,60.98
2019-02-04T13:15:59.022Z,60.10
2019-02-04T13:18:25.882Z,58.49
2019-02-04T13:20:52.719Z,54.91
2019-02-04T13:23:19.584Z,53.43
2019-02-04T13:25:46.413Z,57.88
2019-02-04T13:28:18.934Z,60.29
2019-02-04T13:30:45.882Z,61.52
2019-02-04T13:33:12.736Z,54.91
2019-02-04T13:35:39.588Z,56.93
2019-02-04T13:38:06.448Z,54.84
2019-02-04T13:40:33.294Z,52.01
2019-02-04T13:43:00.160Z,52.11
2019-02-04T13:45:26.995Z,50.23
2019-02-04T13:47:53.850Z,52.67
2019-02-04T13:50:20.670Z,50.99
2019-02-04T13:52:47.613Z,52.15
2019-02-04T13:55:17.114Z,51.93
2019-02-04T13:57:44.004Z,51.50
2019-02-04T14:00:11.773Z,50.35
2019-02-04T14:02:38.619Z,51.15
2019-02-04T14:05:05.758Z,48.99
2019-02-04T14:07:32.586Z,50.73
2019-02-04T14:09:59.594Z,51.89
2019-02-04T14:12:26.418Z,51.62
2019-02-04T14:14:53.382Z,48.43
2019-02-04T14:17:20.211Z,49.26
2019-02-04T14:19:47.074Z,49.85
2019-02-04T14:22:13.990Z,49.95
2019-02-04T14:24:40.829Z,49.79
2019-02-04T14:27:07.682Z,50.43
2019-02-04T14:29:34.551Z,51.20
2019-02-04T14:32:01.370Z,50.74
2019-02-04T14:34:29.003Z,50.31
2019-02-04T14:36:55.889Z,51.10
2019-02-04T14:39:22.833Z,51.60
2019-02-04T14:41:49.773Z,49.85
2019-02-04T14:44:22.469Z,51.00
2019-02-04T14:46:58.219Z,51.00
2019-02-04T14:49:42.077Z,50.58
2019-02-04T14:52:21.441Z,51.29
2019-02-04T14:55:00.921Z,49.88
2019-02-04T14:57:45.077Z,52.20
2019-02-04T15:00:37.362Z,53.26
2019-02-04T15:03:29.470Z,52.31
2019-02-04T15:06:08.372Z,54.00
2019-02-04T15:08:48.546Z,54.39
2019-02-04T15:11:26.670Z,55.24
2019-02-04T15:14:03.803Z,53.68
2019-02-04T15:16:37.423Z,55.53
2019-02-04T15:19:32.075Z,55.48
2019-02-04T15:22:33.597Z,55.16
2019-02-04T15:25:20.762Z,55.93
2019-02-04T15:28:06.686Z,56.73
2019-02-04T15:30:44.822Z,56.96
2019-02-04T15:33:27.266Z,57.54
2019-02-04T15:36:12.945Z,58.43
2019-02-04T15:38:50.631Z,58.64
2019-02-04T15:41:32.892Z,59.09
2019-02-04T15:44:14.413Z,59.41
2019-02-04T15:46:58.637Z,59.63
2019-02-04T15:49:51.111Z,59.89
2019-02-04T15:52:17.915Z,59.79
2019-02-04T15:54:44.762Z,59.79
2019-02-04T15:57:11.670Z,60.15
2019-02-04T15:59:38.505Z,60.48
2019-02-04T16:02:05.360Z,59.72
2019-02-04T16:04:33.754Z,58.39
2019-02-04T16:07:00.941Z,59.57
2019-02-04T16:09:28.274Z,59.61
2019-02-04T16:11:55.134Z,60.26
2019-02-04T16:14:22.019Z,59.29
2019-02-04T16:16:48.902Z,60.33
2019-02-04T16:19:15.747Z,60.78
2019-02-04T16:21:42.602Z,59.15
2019-02-04T16:24:09.474Z,60.72
2019-02-04T16:26:36.339Z,60.35
2019-02-04T16:29:04.089Z,60.23
2019-02-04T16:31:31.140Z,60.61
2019-02-04T16:33:58.192Z,60.97
2019-02-04T16:36:25.322Z,60.16
2019-02-04T16:38:52.198Z,60.11
2019-02-04T16:41:19.267Z,60.80
2019-02-04T16:43:46.163Z,61.67
2019-02-04T16:46:12.977Z,61.13
2019-02-04T16:48:39.867Z,61.73
2019-02-04T16:51:11.714Z,61.69
2019-02-04T16:53:33.562Z,61.58
2019-02-04T16:56:00.411Z,62.41
2019-02-04T16:58:27.306Z,62.76
2019-02-04T17:00:54.138Z,60.77
2019-02-04T17:03:21.010Z,61.07
2019-02-04T17:05:47.846Z,61.77
2019-02-04T17:08:14.818Z,61.76
2019-02-04T17:10:41.555Z,62.21
2019-02-04T17:13:08.411Z,63.21
2019-02-04T17:15:35.334Z,63.38
2019-02-04T17:18:02.328Z,62.77
2019-02-04T17:20:30.902Z,63.46
2019-02-04T17:22:57.762Z,61.37
2019-02-04T17:25:24.611Z,63.40
2019-02-04T17:27:51.489Z,64.52
2019-02-04T17:30:20.272Z,63.90
2019-02-04T17:32:47.231Z,64.17
2019-02-04T17:35:14.089Z,64.70
2019-02-04T17:37:41.012Z,64.55
2019-02-04T17:40:11.128Z,64.71
2019-02-04T17:42:38.105Z,64.89
2019-02-04T17:45:06.294Z,65.21
2019-02-04T17:47:33.146Z,64.92
2019-02-04T17:50:00.323Z,64.90
2019-02-04T17:52:27.053Z,65.10
2019-02-04T17:54:53.935Z,65.38
2019-02-04T17:57:20.783Z,65.82
2019-02-04T17:59:47.640Z,66.01
2019-02-04T18:02:14.567Z,65.92
2019-02-04T18:04:41.410Z,65.47
2019-02-04T18:07:08.363Z,66.38
2019-02-04T18:09:35.236Z,67.03
2019-02-04T18:12:02.062Z,67.13
2019-02-04T18:14:28.913Z,66.06
2019-02-04T18:16:55.746Z,65.84
2019-02-04T18:19:22.627Z,64.67
2019-02-04T18:21:49.462Z,64.67
2019-02-04T18:24:16.336Z,66.50
2019-02-04T18:26:43.174Z,67.86
2019-02-04T18:29:10.035Z,67.68
2019-02-04T18:31:36.878Z,68.64
2019-02-04T18:34:03.773Z,68.91
2019-02-04T18:36:30.986Z,69.60
2019-02-04T18:38:57.859Z,70.06
2019-02-04T18:41:25.710Z,70.88
2019-02-04T18:43:52.671Z,70.30
2019-02-04T18:46:19.577Z,69.84
2019-02-04T18:48:47.424Z,68.41
2019-02-04T18:51:14.269Z,70.60
2019-02-04T18:53:41.164Z,72.06
2019-02-04T18:56:08.019Z,73.00
2019-02-04T18:58:34.892Z,72.29
2019-02-04T19:01:01.738Z,72.22
2019-02-04T19:03:28.606Z,72.57
2019-02-04T19:05:55.573Z,72.32
2019-02-04T19:08:22.463Z,72.10
2019-02-04T19:10:49.417Z,72.58
2019-02-04T19:13:16.257Z,72.86
2019-02-04T19:15:43.138Z,73.52
2019-02-04T19:18:12.750Z,74.15
2019-02-04T19:20:39.617Z,72.37
2019-02-04T19:23:06.466Z,73.76
2019-02-04T19:25:33.341Z,73.70
2019-02-04T19:28:00.275Z,73.91
2019-02-04T19:30:45.235Z,73.09
2019-02-04T19:33:12.067Z,73.44
2019-02-04T19:35:38.914Z,74.05
2019-02-04T19:38:05.747Z,74.56
2019-02-04T19:40:32.639Z,73.99
2019-02-04T19:42:59.474Z,75.01
2019-02-04T19:45:26.410Z,75.13
2019-02-04T19:47:53.337Z,75.27
2019-02-04T19:50:24.285Z,75.11
2019-02-04T19:52:51.178Z,76.05
2019-02-04T19:55:18.042Z,77.30
2019-02-04T19:57:44.874Z,77.66
2019-02-04T20:00:14.487Z,83.09
2019-02-04T20:02:41.326Z,81.73
2019-02-04T20:05:09.482Z,82.04
2019-02-04T20:07:36.427Z,82.34
2019-02-04T20:10:03.923Z,79.69
2019-02-04T20:12:30.734Z,78.62
2019-02-04T20:14:57.682Z,80.01
2019-02-04T20:17:24.521Z,80.86
2019-02-04T20:19:51.374Z,80.86
2019-02-04T20:22:18.218Z,81.44
2019-02-04T20:24:45.066Z,81.84
2019-02-04T20:27:11.899Z,80.90
2019-02-04T20:29:38.807Z,80.47
2019-02-04T20:32:05.650Z,80.66
2019-02-04T20:34:32.534Z,80.90
2019-02-04T20:36:59.367Z,80.97
2019-02-04T20:39:26.210Z,80.93
2019-02-04T20:41:53.054Z,81.16
2019-02-04T20:44:19.888Z,80.90
2019-02-04T20:46:46.762Z,81.17
2019-02-04T20:49:13.594Z,80.31
2019-02-04T20:51:40.447Z,80.20
2019-02-04T20:54:19.193Z,80.01
2019-02-04T20:56:34.194Z,80.12
2019-02-04T20:59:01.026Z,80.04
2019-02-04T21:01:27.874Z,80.06
2019-02-04T21:03:54.774Z,78.66
2019-02-04T21:06:21.615Z,77.62
2019-02-04T21:08:48.452Z,79.79
2019-02-04T21:11:15.490Z,80.53
2019-02-04T21:13:42.326Z,80.92
2019-02-04T21:16:09.190Z,81.11
2019-02-04T21:18:36.022Z,81.76
2019-02-04T21:21:02.884Z,81.48
2019-02-04T21:23:29.702Z,81.00
2019-02-04T21:25:56.546Z,78.54
2019-02-04T21:28:23.383Z,79.87
2019-02-04T21:30:50.258Z,80.80
2019-02-04T21:33:17.094Z,80.42
2019-02-04T21:35:43.985Z,80.08
2019-02-04T21:38:10.797Z,79.94
2019-02-04T21:40:37.638Z,79.11
2019-02-04T21:43:04.470Z,80.35
2019-02-04T21:45:31.355Z,79.85
2019-02-04T21:47:58.198Z,78.55
2019-02-04T21:50:25.085Z,79.07
2019-02-04T21:52:51.906Z,79.74
2019-02-04T21:55:19.166Z,79.19
2019-02-04T21:57:45.928Z,82.59
2019-02-04T22:00:16.202Z,80.94
2019-02-04T22:02:43.030Z,82.28
2019-02-04T22:05:11.382Z,82.15
2019-02-04T22:07:38.217Z,80.50
2019-02-04T22:10:07.743Z,82.49
2019-02-04T22:12:34.594Z,83.71
2019-02-04T22:15:01.430Z,83.81
2019-02-04T22:17:28.305Z,84.49
2019-02-04T22:19:55.137Z,83.96
2019-02-04T22:22:21.985Z,83.72
2019-02-04T22:24:48.810Z,83.72
2019-02-04T22:27:15.658Z,83.99
2019-02-04T22:29:42.487Z,83.71
2019-02-04T22:32:09.318Z,81.26
2019-02-04T22:34:36.155Z,80.07
2019-02-04T22:37:03.006Z,82.36
2019-02-04T22:39:29.834Z,83.29
2019-02-04T22:41:56.697Z,83.48
2019-02-04T22:44:23.511Z,82.36
2019-02-04T22:46:50.394Z,82.77
2019-02-04T22:49:17.223Z,83.25
2019-02-04T22:51:44.061Z,82.12
2019-02-04T22:54:10.889Z,83.31
2019-02-04T22:56:37.735Z,81.39
2019-02-04T22:59:04.663Z,82.86
2019-02-04T23:01:43.770Z,82.49
2019-02-04T23:04:10.622Z,81.56
2019-02-04T23:06:37.478Z,82.57
2019-02-04T23:09:07.619Z,81.67
2019-02-04T23:11:33.465Z,82.76
2019-02-04T23:14:00.269Z,82.81
2019-02-04T23:16:27.124Z,83.71
2019-02-04T23:18:53.950Z,81.78
2019-02-04T23:21:20.802Z,83.07
2019-02-04T23:23:47.641Z,83.46
2019-02-04T23:26:14.485Z,81.59
2019-02-04T23:28:41.314Z,83.02
2019-02-04T23:31:08.170Z,84.67
2019-02-04T23:33:35.011Z,83.99
2019-02-04T23:36:01.854Z,82.85
2019-02-04T23:38:28.679Z,81.75
2019-02-04T23:40:55.518Z,82.35
2019-02-04T23:43:22.357Z,81.08
2019-02-04T23:45:49.222Z,82.72
2019-02-04T23:48:16.066Z,82.46
2019-02-04T23:50:42.906Z,82.91
2019-02-04T23:53:09.863Z,82.14
2019-02-04T23:55:36.592Z,82.57
2019-02-04T23:58:03.445Z,82.26
